createdAt,value
2023-02-08T00:00:40.197Z,103166.31
2023-02-08T00:03:07.263Z,103179.31
2023-02-08T00:05:33.936Z,103189.78
2023-02-08T00:08:00.667Z,103201.09
2023-02-08T00:10:27.488Z,103188.88
2023-02-08T00:12:54.476Z,103189.69
2023-02-08T00:15:21.373Z,103175.03
2023-02-08T00:17:48.070Z,103180.22
2023-02-08T00:20:15.524Z,103174.94
2023-02-08T00:22:42.174Z,103192.38
2023-02-08T00:25:09.273Z,103174.88
2023-02-08T00:27:36.178Z,103191.41
2023-02-08T00:30:03.411Z,103176.53
2023-02-08T00:32:30.040Z,103190.47
2023-02-08T00:34:56.543Z,103154.00
2023-02-08T00:37:23.083Z,103169.59
2023-02-08T00:39:49.780Z,103144.38
2023-02-08T00:42:16.327Z,103154.81
2023-02-08T00:44:42.921Z,103156.63
2023-02-08T00:47:09.661Z,103146.19
2023-02-08T00:49:36.436Z,103174.03
2023-02-08T00:52:03.023Z,103166.25
2023-02-08T00:54:29.623Z,103168.88
2023-02-08T00:56:56.120Z,103167.94
2023-02-08T00:59:22.828Z,103172.38
2023-02-08T01:01:49.375Z,103163.69
2023-02-08T01:04:15.937Z,103117.56
2023-02-08T01:06:42.526Z,103143.66
2023-02-08T01:09:09.093Z,103121.00
2023-02-08T01:11:35.692Z,103143.63
2023-02-08T01:14:02.259Z,103119.22
2023-02-08T01:16:32.015Z,103161.28
2023-02-08T01:19:00.148Z,103108.88
2023-02-08T01:21:29.378Z,103108.88
2023-02-08T01:23:56.272Z,103096.69
2023-02-08T01:26:24.249Z,103151.56
2023-02-08T01:28:51.349Z,103137.59
2023-02-08T01:31:29.068Z,103157.69
2023-02-08T01:33:57.660Z,103142.97
2023-02-08T01:36:25.400Z,103106.31
2023-02-08T01:38:52.149Z,103156.00
2023-02-08T01:41:22.139Z,103133.25
2023-02-08T01:44:11.618Z,103147.97
2023-02-08T01:46:43.497Z,103141.03
2023-02-08T01:49:18.018Z,103147.09
2023-02-08T01:51:47.623Z,103100.97
2023-02-08T01:54:14.861Z,103099.19
2023-02-08T01:56:45.609Z,103141.88
2023-02-08T01:59:26.570Z,103140.13
2023-02-08T02:01:54.602Z,103134.00
2023-02-08T02:04:21.651Z,103134.09
2023-02-08T02:06:52.932Z,103132.34
2023-02-08T02:09:31.913Z,103129.72
2023-02-08T02:11:59.096Z,103127.09
2023-02-08T02:14:26.201Z,103108.84
2023-02-08T02:16:52.690Z,103132.34
2023-02-08T02:19:31.300Z,103140.19
2023-02-08T02:22:06.232Z,103133.28
2023-02-08T02:24:42.658Z,103142.03
2023-02-08T02:27:28.041Z,103138.56
2023-02-08T02:30:17.396Z,103135.97
2023-02-08T02:32:51.352Z,103117.59
2023-02-08T02:35:33.087Z,103133.31
2023-02-08T02:37:59.574Z,103133.38
2023-02-08T02:40:30.663Z,103112.47
2023-02-08T02:43:32.708Z,103126.38
2023-02-08T02:46:37.287Z,103123.75
2023-02-08T02:49:15.370Z,103129.00
2023-02-08T02:51:47.832Z,103123.75
2023-02-08T02:54:16.318Z,103124.66
2023-02-08T02:56:46.165Z,103083.66
2023-02-08T02:59:13.828Z,103117.66
2023-02-08T03:01:43.161Z,103061.91
2023-02-08T03:04:36.639Z,103095.88
2023-02-08T03:07:18.564Z,103112.34
2023-02-08T03:09:57.274Z,103125.44
2023-02-08T03:12:35.283Z,103074.84
2023-02-08T03:15:31.173Z,103116.63
2023-02-08T03:18:08.002Z,103111.34
2023-02-08T03:20:39.020Z,103117.47
2023-02-08T03:23:15.569Z,103071.25
2023-02-08T03:25:42.092Z,103106.94
2023-02-08T03:28:15.906Z,103118.31
2023-02-08T03:30:52.690Z,103092.22
2023-02-08T03:33:31.636Z,103116.63
2023-02-08T03:36:19.631Z,103113.97
2023-02-08T03:38:47.713Z,103113.09
2023-02-08T03:41:19.014Z,103117.41
2023-02-08T03:43:49.632Z,103112.25
2023-02-08T03:46:26.010Z,103119.22
2023-02-08T03:48:58.126Z,103116.53
2023-02-08T03:51:26.425Z,103115.72
2023-02-08T03:53:53.901Z,103093.91
2023-02-08T03:56:35.934Z,103116.59
2023-02-08T03:59:07.342Z,103120.06
2023-02-08T04:01:41.348Z,103101.81
2023-02-08T04:04:08.150Z,103091.34
2023-02-08T04:06:34.759Z,103119.13
2023-02-08T04:09:01.184Z,103120.00
2023-02-08T04:11:27.730Z,103080.00
2023-02-08T04:13:54.249Z,103117.38
2023-02-08T04:16:21.035Z,103076.47
2023-02-08T04:18:47.501Z,103076.41
2023-02-08T04:21:14.176Z,103112.09
2023-02-08T04:23:40.661Z,103118.25
2023-02-08T04:26:08.735Z,103107.75
2023-02-08T04:28:35.245Z,103113.88
2023-02-08T04:31:01.825Z,103125.25
2023-02-08T04:33:29.211Z,103120.06
2023-02-08T04:35:55.772Z,103102.75
2023-02-08T04:38:22.295Z,103121.94
2023-02-08T04:40:48.841Z,103118.41
2023-02-08T04:43:15.403Z,103082.72
2023-02-08T04:45:41.854Z,103092.28
2023-02-08T04:48:08.578Z,103100.13
2023-02-08T04:50:35.555Z,103125.44
2023-02-08T04:53:02.177Z,103108.03
2023-02-08T04:55:28.655Z,103134.19
2023-02-08T04:57:55.185Z,103092.41
2023-02-08T05:00:21.867Z,103137.69
2023-02-08T05:02:53.012Z,103095.00
2023-02-08T05:05:19.550Z,103142.09
2023-02-08T05:07:46.122Z,103113.31
2023-02-08T05:10:12.639Z,103142.06
2023-02-08T05:12:39.113Z,103113.31
2023-02-08T05:15:05.898Z,103134.25
2023-02-08T05:17:32.351Z,103115.06
2023-02-08T05:19:58.875Z,103096.78
2023-02-08T05:22:25.408Z,103116.81
2023-02-08T05:24:51.965Z,103131.63
2023-02-08T05:27:18.475Z,103136.88
2023-02-08T05:29:44.962Z,103141.25
2023-02-08T05:32:11.641Z,103127.31
2023-02-08T05:34:38.497Z,103138.63
2023-02-08T05:37:05.107Z,103131.63
2023-02-08T05:39:31.528Z,103143.88
2023-02-08T05:41:58.667Z,103148.22
2023-02-08T05:44:25.230Z,103111.59
2023-02-08T05:46:51.845Z,103119.44
2023-02-08T05:49:18.570Z,103122.06
2023-02-08T05:51:45.337Z,103134.25
2023-02-08T05:54:11.939Z,103144.72
2023-02-08T05:56:38.640Z,103152.56
2023-02-08T05:59:05.222Z,103111.59
2023-02-08T06:01:31.768Z,103135.94
2023-02-08T06:03:59.707Z,103161.22
2023-02-08T06:06:26.821Z,103159.53
2023-02-08T06:08:53.454Z,103134.25
2023-02-08T06:11:20.213Z,103159.53
2023-02-08T06:13:47.260Z,103163.91
2023-02-08T06:16:14.800Z,103156.94
2023-02-08T06:18:41.307Z,103158.66
2023-02-08T06:21:07.890Z,103163.91
2023-02-08T06:23:34.355Z,103154.31
2023-02-08T06:26:00.867Z,103140.38
2023-02-08T06:28:27.791Z,103148.22
2023-02-08T06:30:54.441Z,103135.16
2023-02-08T06:33:20.995Z,103118.59
2023-02-08T06:35:51.329Z,103096.75
2023-02-08T06:38:18.197Z,103144.72
2023-02-08T06:40:47.372Z,103106.34
2023-02-08T06:43:14.426Z,103114.19
2023-02-08T06:45:42.796Z,103111.59
2023-02-08T06:48:09.314Z,103100.25
2023-02-08T06:50:37.849Z,103128.16
2023-02-08T06:53:04.948Z,103093.28
2023-02-08T06:55:31.457Z,103132.53
2023-02-08T06:57:57.943Z,103129.91
2023-02-08T07:00:24.763Z,103125.53
2023-02-08T07:02:52.450Z,103128.16
2023-02-08T07:05:19.182Z,103128.19
2023-02-08T07:07:45.863Z,103071.50
2023-02-08T07:10:12.369Z,103088.91
2023-02-08T07:12:38.983Z,103103.72
2023-02-08T07:15:05.736Z,103092.38
2023-02-08T07:17:32.300Z,103102.88
2023-02-08T07:19:58.770Z,103095.81
2023-02-08T07:22:25.270Z,103130.78
2023-02-08T07:24:51.913Z,103127.31
2023-02-08T07:27:18.537Z,103128.16
2023-02-08T07:29:45.004Z,103087.22
2023-02-08T07:32:11.632Z,103112.47
2023-02-08T07:34:43.406Z,103108.97
2023-02-08T07:37:09.970Z,103115.97
2023-02-08T07:39:36.549Z,103105.50
2023-02-08T07:42:03.312Z,103109.81
2023-02-08T07:44:29.780Z,103109.81
2023-02-08T07:46:56.325Z,103101.94
2023-02-08T07:49:22.869Z,103120.22
2023-02-08T07:51:49.738Z,103057.47
2023-02-08T07:54:16.277Z,103116.66
2023-02-08T07:56:42.752Z,103118.41
2023-02-08T07:59:09.305Z,103107.88
2023-02-08T08:01:35.892Z,103099.22
2023-02-08T08:04:02.827Z,103118.34
2023-02-08T08:06:29.371Z,103119.94
2023-02-08T08:08:55.927Z,103117.16
2023-02-08T08:11:22.700Z,103123.13
2023-02-08T08:13:50.073Z,103119.53
2023-02-08T08:16:16.791Z,103121.09
2023-02-08T08:18:43.319Z,103085.13
2023-02-08T08:21:10.364Z,103090.97
2023-02-08T08:23:36.966Z,103108.97
2023-02-08T08:26:15.088Z,103116.75
2023-02-08T08:28:42.640Z,103087.72
2023-02-08T08:31:14.178Z,103110.63
2023-02-08T08:33:40.865Z,103087.91
2023-02-08T08:36:08.397Z,103082.31
2023-02-08T08:38:35.290Z,103091.41
2023-02-08T08:41:01.962Z,103098.28
2023-02-08T08:43:28.440Z,103095.94
2023-02-08T08:45:55.093Z,103100.91
2023-02-08T08:48:21.777Z,103102.59
2023-02-08T08:50:48.338Z,103059.94
2023-02-08T08:53:15.334Z,103093.13
2023-02-08T08:55:41.793Z,103094.97
2023-02-08T08:58:08.256Z,103047.81
2023-02-08T09:00:34.733Z,103082.09
2023-02-08T09:03:01.281Z,103062.31
2023-02-08T09:05:28.043Z,103074.47
2023-02-08T09:07:54.646Z,103076.44
2023-02-08T09:10:21.094Z,103066.47
2023-02-08T09:12:47.786Z,103071.41
2023-02-08T09:15:14.338Z,103071.66
2023-02-08T09:17:40.955Z,103050.22
2023-02-08T09:20:07.768Z,103068.50
2023-02-08T09:22:34.699Z,103069.56
2023-02-08T09:25:02.086Z,102978.84
2023-02-08T09:27:29.361Z,103029.78
2023-02-08T09:29:55.888Z,103069.09
2023-02-08T09:32:23.016Z,103068.59
2023-02-08T09:34:49.894Z,103038.50
2023-02-08T09:37:17.989Z,103051.38
2023-02-08T09:39:47.348Z,103069.84
2023-02-08T09:42:34.901Z,103067.13
2023-02-08T09:45:23.550Z,103065.16
2023-02-08T09:48:17.137Z,103058.72
2023-02-08T09:50:54.514Z,103051.25
2023-02-08T09:53:27.836Z,103038.56
2023-02-08T09:56:01.736Z,103035.19
2023-02-08T09:58:38.131Z,103034.63
2023-02-08T10:01:07.557Z,103023.09
2023-02-08T10:03:44.156Z,103028.75
2023-02-08T10:06:18.360Z,103012.13
2023-02-08T10:08:46.437Z,103018.34
2023-02-08T10:11:26.253Z,103017.53
2023-02-08T10:14:13.200Z,103006.31
2023-02-08T10:17:04.271Z,103018.59
2023-02-08T10:20:06.085Z,103010.22
2023-02-08T10:22:51.111Z,103012.19
2023-02-08T10:25:41.880Z,103006.16
2023-02-08T10:28:20.634Z,103000.25
2023-02-08T10:31:21.566Z,102998.00
2023-02-08T10:33:55.397Z,102984.16
2023-02-08T10:36:26.060Z,102995.47
2023-02-08T10:38:53.386Z,102996.06
2023-02-08T10:41:23.583Z,102990.84
2023-02-08T10:44:01.580Z,102985.25
2023-02-08T10:46:34.752Z,102981.69
2023-02-08T10:49:16.544Z,102983.25
2023-02-08T10:51:43.185Z,102974.31
2023-02-08T10:54:13.477Z,102977.53
2023-02-08T10:56:47.743Z,102955.53
2023-02-08T10:59:24.254Z,102968.72
2023-02-08T11:01:50.950Z,102979.50
2023-02-08T11:04:18.720Z,102968.31
2023-02-08T11:06:46.518Z,102959.72
2023-02-08T11:09:33.334Z,102956.66
2023-02-08T11:12:01.301Z,102954.63
2023-02-08T11:14:51.115Z,102950.47
2023-02-08T11:17:28.461Z,102946.81
2023-02-08T11:19:55.548Z,102935.13
2023-02-08T11:22:25.137Z,102935.31
2023-02-08T11:25:03.895Z,102935.78
2023-02-08T11:27:36.200Z,102915.44
2023-02-08T11:30:14.849Z,102934.72
2023-02-08T11:32:46.560Z,102903.31
2023-02-08T11:35:23.419Z,102917.16
2023-02-08T11:37:54.982Z,102911.81
2023-02-08T11:40:26.506Z,102906.22
2023-02-08T11:42:53.159Z,102900.97
2023-02-08T11:45:24.905Z,102915.22
2023-02-08T11:47:52.014Z,102927.47
2023-02-08T11:50:32.585Z,102917.50
2023-02-08T11:53:01.641Z,102919.59
2023-02-08T11:55:30.991Z,102923.84
2023-02-08T11:58:09.532Z,102919.69
2023-02-08T12:00:38.104Z,102915.13
2023-02-08T12:03:15.054Z,102911.31
2023-02-08T12:05:50.293Z,102889.31
2023-02-08T12:08:35.643Z,102901.09
2023-02-08T12:11:11.055Z,102891.44
2023-02-08T12:13:53.099Z,102891.84
2023-02-08T12:16:36.751Z,102877.88
2023-02-08T12:19:12.017Z,102888.16
2023-02-08T12:21:46.753Z,102885.06
2023-02-08T12:24:22.265Z,102879.50
2023-02-08T12:27:27.569Z,102874.28
2023-02-08T12:30:24.249Z,102847.22
2023-02-08T12:33:06.209Z,102860.06
2023-02-08T12:36:03.522Z,102867.91
2023-02-08T12:39:18.910Z,102835.38
2023-02-08T12:41:52.112Z,102857.19
2023-02-08T12:44:37.192Z,102851.63
2023-02-08T12:47:22.140Z,102867.38
2023-02-08T12:50:08.222Z,102868.69
2023-02-08T12:52:41.622Z,102864.81
2023-02-08T12:55:30.553Z,102889.13
2023-02-08T12:58:22.356Z,102887.50
2023-02-08T13:00:50.354Z,102902.16
2023-02-08T13:03:36.925Z,102899.25
2023-02-08T13:06:06.997Z,102890.06
2023-02-08T13:08:41.480Z,102878.13
2023-02-08T13:11:20.114Z,102887.84
2023-02-08T13:13:56.110Z,102878.72
2023-02-08T13:16:25.460Z,102861.56
2023-02-08T13:18:55.781Z,102880.50
2023-02-08T13:21:30.521Z,102875.41
2023-02-08T13:23:57.962Z,102876.69
2023-02-08T13:26:28.007Z,102869.88
2023-02-08T13:28:56.493Z,102857.91
2023-02-08T13:31:25.745Z,102861.50
2023-02-08T13:34:08.178Z,102846.09
2023-02-08T13:36:35.426Z,102848.56
2023-02-08T13:39:08.723Z,102853.34
2023-02-08T13:41:36.015Z,102847.72
2023-02-08T13:44:19.584Z,102846.84
2023-02-08T13:46:48.428Z,102837.47
2023-02-08T13:49:39.927Z,102824.59
2023-02-08T13:52:08.166Z,102820.28
2023-02-08T13:54:34.662Z,102823.75
2023-02-08T13:57:01.888Z,102816.84
2023-02-08T13:59:34.038Z,102819.34
2023-02-08T14:02:14.421Z,102814.41
2023-02-08T14:04:45.818Z,102816.75
2023-02-08T14:07:22.005Z,102820.06
2023-02-08T14:10:08.704Z,102814.19
2023-02-08T14:12:40.166Z,102803.47
2023-02-08T14:15:17.160Z,102803.38
2023-02-08T14:17:48.891Z,102771.31
2023-02-08T14:20:40.092Z,102790.66
2023-02-08T14:23:27.179Z,102785.94
2023-02-08T14:25:55.726Z,102795.47
2023-02-08T14:28:28.370Z,102791.97
2023-02-08T14:30:57.416Z,102759.84
2023-02-08T14:33:31.546Z,102793.50
2023-02-08T14:36:00.993Z,102773.94
2023-02-08T14:38:38.197Z,102790.78
2023-02-08T14:41:04.724Z,102783.03
2023-02-08T14:43:42.139Z,102786.63
2023-02-08T14:46:40.180Z,102771.84
2023-02-08T14:49:15.834Z,102742.16
2023-02-08T14:51:47.591Z,102779.19
2023-02-08T14:54:23.101Z,102765.66
2023-02-08T14:57:01.420Z,102756.22
2023-02-08T14:59:31.143Z,102715.22
2023-02-08T15:02:00.660Z,102765.34
2023-02-08T15:04:27.931Z,102766.53
2023-02-08T15:07:04.394Z,102731.88
2023-02-08T15:09:32.772Z,102749.75
2023-02-08T15:12:04.402Z,102757.56
2023-02-08T15:14:34.674Z,102728.53
2023-02-08T15:17:01.846Z,102756.28
2023-02-08T15:19:31.359Z,102758.16
2023-02-08T15:22:17.467Z,102748.97
2023-02-08T15:24:52.267Z,102741.78
2023-02-08T15:27:24.388Z,102746.09
2023-02-08T15:29:51.296Z,102719.00
2023-02-08T15:32:20.685Z,102724.53
2023-02-08T15:34:52.042Z,102754.09
2023-02-08T15:37:19.300Z,102749.44
2023-02-08T15:39:50.127Z,102749.91
2023-02-08T15:42:19.172Z,102744.47
2023-02-08T15:44:46.295Z,102743.09
2023-02-08T15:47:25.266Z,102744.03
2023-02-08T15:49:53.656Z,102720.47
2023-02-08T15:52:23.436Z,102718.00
2023-02-08T15:54:51.035Z,102738.34
2023-02-08T15:57:22.757Z,102675.63
2023-02-08T15:59:49.514Z,102719.41
2023-02-08T16:02:31.117Z,102712.59
2023-02-08T16:04:59.690Z,102730.25
2023-02-08T16:07:37.217Z,102718.81
2023-02-08T16:10:05.446Z,102717.34
2023-02-08T16:12:32.437Z,102676.25
2023-02-08T16:14:59.185Z,102691.84
2023-02-08T16:17:44.949Z,102705.56
2023-02-08T16:20:40.725Z,102703.78
2023-02-08T16:23:26.329Z,102662.78
2023-02-08T16:25:52.815Z,102698.75
2023-02-08T16:28:31.266Z,102700.31
2023-02-08T16:31:03.134Z,102706.75
2023-02-08T16:33:31.102Z,102673.09
2023-02-08T16:36:06.640Z,102658.38
2023-02-08T16:38:34.209Z,102699.50
2023-02-08T16:41:13.215Z,102698.09
2023-02-08T16:43:44.504Z,102696.59
2023-02-08T16:46:12.460Z,102689.94
2023-02-08T16:48:42.025Z,102695.63
2023-02-08T16:51:21.844Z,102694.13
2023-02-08T16:53:52.607Z,102691.81
2023-02-08T16:56:19.437Z,102672.00
2023-02-08T16:58:45.939Z,102688.00
2023-02-08T17:01:14.186Z,102670.69
2023-02-08T17:03:41.781Z,102678.53
2023-02-08T17:06:19.843Z,102678.19
2023-02-08T17:08:46.352Z,102673.50
2023-02-08T17:11:12.981Z,102647.69
2023-02-08T17:13:39.720Z,102660.50
2023-02-08T17:16:06.498Z,102614.75
2023-02-08T17:18:34.998Z,102618.44
2023-02-08T17:21:02.038Z,102662.78
2023-02-08T17:23:28.537Z,102666.09
2023-02-08T17:25:55.068Z,102647.25
2023-02-08T17:28:22.409Z,102641.88
2023-02-08T17:30:49.758Z,102650.38
2023-02-08T17:33:19.838Z,102655.25
2023-02-08T17:35:48.523Z,102557.09
2023-02-08T17:38:15.517Z,102647.53
2023-02-08T17:40:43.233Z,102613.13
2023-02-08T17:43:11.485Z,102648.03
2023-02-08T17:45:39.353Z,102638.25
2023-02-08T17:48:06.035Z,102618.50
2023-02-08T17:50:32.554Z,102587.53
2023-02-08T17:52:59.556Z,102617.50
2023-02-08T17:55:26.155Z,102620.75
2023-02-08T17:57:53.713Z,102561.19
2023-02-08T18:00:22.276Z,102619.34
2023-02-08T18:02:51.829Z,102621.47
2023-02-08T18:05:21.296Z,102623.19
2023-02-08T18:07:47.878Z,102619.63
2023-02-08T18:10:16.046Z,102621.16
2023-02-08T18:12:43.073Z,102598.84
2023-02-08T18:15:12.407Z,102622.88
2023-02-08T18:17:39.778Z,102627.31
2023-02-08T18:20:06.884Z,102620.75
2023-02-08T18:22:33.447Z,102593.03
2023-02-08T18:24:59.926Z,102615.63
2023-02-08T18:27:27.287Z,102615.63
2023-02-08T18:29:54.446Z,102621.69
2023-02-08T18:32:22.022Z,102612.84
2023-02-08T18:34:49.400Z,102615.69
2023-02-08T18:37:16.196Z,102612.97
2023-02-08T18:39:42.770Z,102606.91
2023-02-08T18:42:09.393Z,102614.97
2023-02-08T18:44:38.586Z,102593.19
2023-02-08T18:47:06.225Z,102617.88
2023-02-08T18:49:34.520Z,102594.69
2023-02-08T18:52:01.151Z,102579.19
2023-02-08T18:54:27.685Z,102600.88
2023-02-08T18:56:55.802Z,102615.41
2023-02-08T18:59:22.388Z,102580.75
2023-02-08T19:01:48.910Z,102599.63
2023-02-08T19:04:15.623Z,102599.56
2023-02-08T19:06:42.304Z,102588.31
2023-02-08T19:09:08.944Z,102589.50
2023-02-08T19:11:37.897Z,102603.69
2023-02-08T19:14:10.012Z,102592.63
2023-02-08T19:16:37.281Z,102594.00
2023-02-08T19:19:05.795Z,102596.44
2023-02-08T19:21:33.503Z,102586.84
2023-02-08T19:24:00.968Z,102584.66
2023-02-08T19:26:33.359Z,102584.81
2023-02-08T19:29:03.134Z,102593.84
2023-02-08T19:31:30.693Z,102588.31
2023-02-08T19:33:58.993Z,102555.06
2023-02-08T19:36:31.559Z,102557.41
2023-02-08T19:38:58.666Z,102584.38
2023-02-08T19:41:29.470Z,102587.22
2023-02-08T19:43:55.956Z,102578.75
2023-02-08T19:46:26.558Z,102551.03
2023-02-08T19:48:55.560Z,102573.59
2023-02-08T19:51:22.974Z,102578.06
2023-02-08T19:53:49.558Z,102564.69
2023-02-08T19:56:17.928Z,102573.03
2023-02-08T19:58:45.335Z,102579.50
2023-02-08T20:01:18.008Z,102566.53
2023-02-08T20:03:45.863Z,102579.34
2023-02-08T20:06:25.526Z,102574.97
2023-02-08T20:08:52.338Z,102564.63
2023-02-08T20:11:25.180Z,102580.09
2023-02-08T20:13:52.552Z,102587.03
2023-02-08T20:16:20.680Z,102582.88
2023-02-08T20:18:47.669Z,102576.50
2023-02-08T20:21:14.459Z,102584.63
2023-02-08T20:23:41.398Z,102567.69
2023-02-08T20:26:14.949Z,102596.47
2023-02-08T20:28:46.292Z,102579.59
2023-02-08T20:31:16.119Z,102590.44
2023-02-08T20:33:43.273Z,102607.31
2023-02-08T20:36:15.362Z,102571.59
2023-02-08T20:38:42.423Z,102606.00
2023-02-08T20:41:13.386Z,102609.09
2023-02-08T20:43:42.360Z,102587.41
2023-02-08T20:46:12.857Z,102605.63
2023-02-08T20:48:39.471Z,102608.50
2023-02-08T20:51:10.024Z,102610.91
2023-02-08T20:53:37.655Z,102609.31
2023-02-08T20:56:09.338Z,102603.34
2023-02-08T20:58:36.343Z,102600.78
2023-02-08T21:01:07.328Z,102589.22
2023-02-08T21:03:33.877Z,102604.28
2023-02-08T21:06:00.635Z,102609.63
2023-02-08T21:08:27.131Z,102623.34
2023-02-08T21:10:54.381Z,102610.69
2023-02-08T21:13:20.862Z,102582.09
2023-02-08T21:15:47.342Z,102598.19
2023-02-08T21:18:13.789Z,102616.22
2023-02-08T21:20:40.633Z,102602.84
2023-02-08T21:23:07.709Z,102621.56
2023-02-08T21:25:34.258Z,102609.00
2023-02-08T21:28:00.921Z,102582.97
2023-02-08T21:30:27.545Z,102614.31
2023-02-08T21:32:54.141Z,102608.41
2023-02-08T21:35:20.577Z,102605.22
2023-02-08T21:37:47.108Z,102611.56
2023-02-08T21:40:13.631Z,102605.53
2023-02-08T21:42:40.064Z,102616.66
2023-02-08T21:45:08.556Z,102606.44
2023-02-08T21:47:35.486Z,102608.78
2023-02-08T21:50:20.726Z,102569.53
2023-02-08T21:53:06.121Z,102602.16
2023-02-08T21:55:32.768Z,102606.97
2023-02-08T21:57:59.247Z,102587.50
2023-02-08T22:00:25.774Z,102594.31
2023-02-08T22:02:52.353Z,102596.41
2023-02-08T22:05:21.794Z,102594.06
2023-02-08T22:07:55.927Z,102560.88
2023-02-08T22:10:27.132Z,102590.22
2023-02-08T22:12:55.127Z,102584.44
2023-02-08T22:15:24.445Z,102597.09
2023-02-08T22:17:55.657Z,102588.16
2023-02-08T22:20:22.687Z,102587.03
2023-02-08T22:22:52.629Z,102569.44
2023-02-08T22:25:21.041Z,102594.50
2023-02-08T22:27:47.907Z,102588.41
2023-02-08T22:30:16.275Z,102594.50
2023-02-08T22:32:44.329Z,102591.88
2023-02-08T22:35:12.357Z,102590.34
2023-02-08T22:37:39.208Z,102574.34
2023-02-08T22:40:06.856Z,102596.78
2023-02-08T22:42:33.570Z,102598.59
2023-02-08T22:45:00.199Z,102593.28
2023-02-08T22:47:26.666Z,102589.97
2023-02-08T22:49:56.614Z,102564.47
2023-02-08T22:52:24.223Z,102571.97
2023-02-08T22:54:51.067Z,102584.41
2023-02-08T22:57:18.154Z,102593.09
2023-02-08T22:59:44.634Z,102559.16
2023-02-08T23:02:11.103Z,102595.22
2023-02-08T23:04:38.087Z,102596.31
2023-02-08T23:07:04.949Z,102587.75
2023-02-08T23:09:31.405Z,102580.09
2023-02-08T23:11:58.079Z,102565.91
2023-02-08T23:14:24.578Z,102582.56
2023-02-08T23:16:50.992Z,102545.13
2023-02-08T23:19:18.601Z,102579.59
2023-02-08T23:21:45.307Z,102520.22
2023-02-08T23:24:11.869Z,102577.50
2023-02-08T23:26:39.119Z,102567.69
2023-02-08T23:29:05.908Z,102539.03
2023-02-08T23:31:32.514Z,102574.09
2023-02-08T23:34:00.368Z,102520.41
2023-02-08T23:36:27.101Z,102578.56
2023-02-08T23:38:53.716Z,102578.25
2023-02-08T23:41:21.773Z,102570.13
2023-02-08T23:43:49.837Z,102572.72
2023-02-08T23:46:23.104Z,102573.72
2023-02-08T23:48:50.503Z,102569.50
2023-02-08T23:51:19.090Z,102565.00
2023-02-08T23:53:45.738Z,102564.00
2023-02-08T23:56:24.356Z,102566.47
2023-02-08T23:58:53.906Z,102571.06
